sensor_id;sensor_type;location;lat;lon;timestamp;temperature;humidity
15967;DHT22;15175;48.154;11.534;2022-09-13T00:02:16;16.30;99.90
15967;DHT22;15175;48.154;11.534;2022-09-13T00:04:43;16.30;99.90
15967;DHT22;15175;48.154;11.534;2022-09-13T00:07:10;16.20;99.90
15967;DHT22;15175;48.154;11.534;2022-09-13T00:09:37;16.20;99.90
15967;DHT22;15175;48.154;11.534;2022-09-13T00:12:05;16.20;99.90
15967;DHT22;15175;48.154;11.534;2022-09-13T00:14:33;16.20;99.90
15967;DHT22;15175;48.154;11.534;2022-09-13T00:17:00;16.20;99.90
15967;DHT22;15175;48.154;11.534;2022-09-13T00:19:27;16.20;99.90
15967;DHT22;15175;48.154;11.534;2022-09-13T00:21:54;16.20;99.90
15967;DHT22;15175;48.154;11.534;2022-09-13T00:24:21;16.20;99.90
15967;DHT22;15175;48.154;11.534;2022-09-13T00:26:48;16.20;99.90
15967;DHT22;15175;48.154;11.534;2022-09-13T00:29:15;16.20;99.90
15967;DHT22;15175;48.154;11.534;2022-09-13T00:31:43;16.10;99.90
15967;DHT22;15175;48.154;11.534;2022-09-13T00:34:10;16.20;99.90
15967;DHT22;15175;48.154;11.534;2022-09-13T00:36:37;16.10;99.90
15967;DHT22;15175;48.154;11.534;2022-09-13T00:39:04;16.00;99.90
15967;DHT22;15175;48.154;11.534;2022-09-13T00:41:31;16.00;99.90
15967;DHT22;15175;48.154;11.534;2022-09-13T00:43:59;15.90;99.90
15967;DHT22;15175;48.154;11.534;2022-09-13T00:46:32;15.90;99.90
15967;DHT22;15175;48.154;11.534;2022-09-13T00:49:09;15.90;99.90
15967;DHT22;15175;48.154;11.534;2022-09-13T00:51:38;15.90;99.90
15967;DHT22;15175;48.154;11.534;2022-09-13T00:54:08;15.80;99.90
15967;DHT22;15175;48.154;11.534;2022-09-13T00:56:40;15.80;99.90
15967;DHT22;15175;48.154;11.534;2022-09-13T00:59:13;15.80;99.90
15967;DHT22;15175;48.154;11.534;2022-09-13T01:01:46;15.80;99.90
15967;DHT22;15175;48.154;11.534;2022-09-13T01:04:18;15.80;99.90
15967;DHT22;15175;48.154;11.534;2022-09-13T01:06:46;15.80;99.90
15967;DHT22;15175;48.154;11.534;2022-09-13T01:09:13;15.80;99.90
15967;DHT22;15175;48.154;11.534;2022-09-13T01:11:45;15.70;99.90
15967;DHT22;15175;48.154;11.534;2022-09-13T01:14:17;15.70;99.90
15967;DHT22;15175;48.154;11.534;2022-09-13T01:16:44;15.70;99.90
15967;DHT22;15175;48.154;11.534;2022-09-13T01:19:11;15.60;99.90
15967;DHT22;15175;48.154;11.534;2022-09-13T01:28:11;15.50;99.90
15967;DHT22;15175;48.154;11.534;2022-09-13T01:30:47;15.50;99.90
15967;DHT22;15175;48.154;11.534;2022-09-13T01:33:35;15.60;99.90
15967;DHT22;15175;48.154;11.534;2022-09-13T01:39:07;15.60;99.90
15967;DHT22;15175;48.154;11.534;2022-09-13T01:41:57;15.50;99.90
15967;DHT22;15175;48.154;11.534;2022-09-13T01:44:43;15.50;99.90
15967;DHT22;15175;48.154;11.534;2022-09-13T01:47:23;15.40;99.90
15967;DHT22;15175;48.154;11.534;2022-09-13T01:50:02;15.40;99.90
15967;DHT22;15175;48.154;11.534;2022-09-13T01:52:37;15.40;99.90
15967;DHT22;15175;48.154;11.534;2022-09-13T01:55:12;15.40;99.90
15967;DHT22;15175;48.154;11.534;2022-09-13T01:57:45;15.40;99.90
15967;DHT22;15175;48.154;11.534;2022-09-13T02:00:16;15.50;99.90
15967;DHT22;15175;48.154;11.534;2022-09-13T02:02:47;15.40;99.90
15967;DHT22;15175;48.154;11.534;2022-09-13T02:05:19;15.40;99.90
15967;DHT22;15175;48.154;11.534;2022-09-13T02:07:52;15.40;99.90
15967;DHT22;15175;48.154;11.534;2022-09-13T02:10:25;15.40;99.90
15967;DHT22;15175;48.154;11.534;2022-09-13T02:12:55;15.40;99.90
15967;DHT22;15175;48.154;11.534;2022-09-13T02:15:26;15.30;99.90
15967;DHT22;15175;48.154;11.534;2022-09-13T02:18:01;15.30;99.90
15967;DHT22;15175;48.154;11.534;2022-09-13T02:20:34;15.40;99.90
15967;DHT22;15175;48.154;11.534;2022-09-13T02:23:04;15.30;99.90
15967;DHT22;15175;48.154;11.534;2022-09-13T02:25:35;15.30;99.90
15967;DHT22;15175;48.154;11.534;2022-09-13T02:28:06;15.30;99.90
15967;DHT22;15175;48.154;11.534;2022-09-13T02:30:37;15.30;99.90
15967;DHT22;15175;48.154;11.534;2022-09-13T02:33:11;15.20;99.90
15967;DHT22;15175;48.154;11.534;2022-09-13T02:35:43;15.20;99.90
15967;DHT22;15175;48.154;11.534;2022-09-13T02:38:21;15.20;99.90
15967;DHT22;15175;48.154;11.534;2022-09-13T02:40:55;15.20;99.90
15967;DHT22;15175;48.154;11.534;2022-09-13T02:43:27;15.10;99.90
15967;DHT22;15175;48.154;11.534;2022-09-13T02:46:04;15.10;99.90
15967;DHT22;15175;48.154;11.534;2022-09-13T02:48:46;15.10;99.90
15967;DHT22;15175;48.154;11.534;2022-09-13T02:51:19;15.10;99.90
15967;DHT22;15175;48.154;11.534;2022-09-13T02:53:53;15.10;99.90
15967;DHT22;15175;48.154;11.534;2022-09-13T02:56:29;15.10;99.90
15967;DHT22;15175;48.154;11.534;2022-09-13T02:59:04;15.10;99.90
15967;DHT22;15175;48.154;11.534;2022-09-13T03:01:33;15.00;99.90
15967;DHT22;15175;48.154;11.534;2022-09-13T03:04:02;15.00;99.90
15967;DHT22;15175;48.154;11.534;2022-09-13T03:06:30;15.00;99.90
15967;DHT22;15175;48.154;11.534;2022-09-13T03:09:00;15.00;99.90
15967;DHT22;15175;48.154;11.534;2022-09-13T03:11:39;15.00;99.90
15967;DHT22;15175;48.154;11.534;2022-09-13T03:14:19;15.00;99.90
15967;DHT22;15175;48.154;11.534;2022-09-13T03:17:04;15.00;99.90
15967;DHT22;15175;48.154;11.534;2022-09-13T03:19:47;15.00;99.90
15967;DHT22;15175;48.154;11.534;2022-09-13T03:22:35;15.00;99.90
15967;DHT22;15175;48.154;11.534;2022-09-13T03:25:11;14.90;99.90
15967;DHT22;15175;48.154;11.534;2022-09-13T03:27:50;14.90;99.90
15967;DHT22;15175;48.154;11.534;2022-09-13T03:30:18;14.90;99.90
15967;DHT22;15175;48.154;11.534;2022-09-13T03:32:49;14.90;99.90
15967;DHT22;15175;48.154;11.534;2022-09-13T03:35:25;14.80;99.90
15967;DHT22;15175;48.154;11.534;2022-09-13T03:37:56;14.80;99.90
15967;DHT22;15175;48.154;11.534;2022-09-13T03:40:33;14.80;99.90
15967;DHT22;15175;48.154;11.534;2022-09-13T03:43:04;14.80;99.90
15967;DHT22;15175;48.154;11.534;2022-09-13T03:45:37;14.80;99.90
15967;DHT22;15175;48.154;11.534;2022-09-13T03:48:06;14.80;99.90
15967;DHT22;15175;48.154;11.534;2022-09-13T03:50:35;14.80;99.90
15967;DHT22;15175;48.154;11.534;2022-09-13T03:53:06;14.90;99.90
15967;DHT22;15175;48.154;11.534;2022-09-13T03:55:38;14.90;99.90
15967;DHT22;15175;48.154;11.534;2022-09-13T03:58:06;14.90;99.90
15967;DHT22;15175;48.154;11.534;2022-09-13T04:00:33;14.80;99.90
15967;DHT22;15175;48.154;11.534;2022-09-13T04:03:00;14.90;99.90
15967;DHT22;15175;48.154;11.534;2022-09-13T04:05:27;14.80;99.90
15967;DHT22;15175;48.154;11.534;2022-09-13T04:07:55;14.80;99.90
15967;DHT22;15175;48.154;11.534;2022-09-13T04:10:22;14.80;99.90
15967;DHT22;15175;48.154;11.534;2022-09-13T04:12:49;14.80;99.90
15967;DHT22;15175;48.154;11.534;2022-09-13T04:15:17;14.80;99.90
15967;DHT22;15175;48.154;11.534;2022-09-13T04:17:44;14.80;99.90
15967;DHT22;15175;48.154;11.534;2022-09-13T04:20:11;14.80;99.90
15967;DHT22;15175;48.154;11.534;2022-09-13T04:22:38;14.80;99.90
15967;DHT22;15175;48.154;11.534;2022-09-13T04:25:08;14.80;99.90
15967;DHT22;15175;48.154;11.534;2022-09-13T04:27:35;14.80;99.90
15967;DHT22;15175;48.154;11.534;2022-09-13T04:30:03;14.80;99.90
15967;DHT22;15175;48.154;11.534;2022-09-13T04:32:30;14.70;99.90
15967;DHT22;15175;48.154;11.534;2022-09-13T04:34:58;14.70;99.90
15967;DHT22;15175;48.154;11.534;2022-09-13T04:37:25;14.70;99.90
15967;DHT22;15175;48.154;11.534;2022-09-13T04:39:52;14.70;99.90
15967;DHT22;15175;48.154;11.534;2022-09-13T04:42:20;14.70;99.90
15967;DHT22;15175;48.154;11.534;2022-09-13T04:44:47;14.70;99.90
15967;DHT22;15175;48.154;11.534;2022-09-13T04:47:14;14.70;99.90
15967;DHT22;15175;48.154;11.534;2022-09-13T04:49:41;14.70;99.90
15967;DHT22;15175;48.154;11.534;2022-09-13T04:52:08;14.70;99.90
15967;DHT22;15175;48.154;11.534;2022-09-13T04:54:35;14.70;99.90
15967;DHT22;15175;48.154;11.534;2022-09-13T04:57:03;14.70;99.90
15967;DHT22;15175;48.154;11.534;2022-09-13T04:59:32;14.70;99.90
15967;DHT22;15175;48.154;11.534;2022-09-13T05:01:59;14.70;99.90
15967;DHT22;15175;48.154;11.534;2022-09-13T05:04:26;14.70;99.90
15967;DHT22;15175;48.154;11.534;2022-09-13T05:06:53;14.60;99.90
15967;DHT22;15175;48.154;11.534;2022-09-13T05:09:20;14.70;99.90
15967;DHT22;15175;48.154;11.534;2022-09-13T05:11:47;14.70;99.90
15967;DHT22;15175;48.154;11.534;2022-09-13T05:14:14;14.70;99.90
15967;DHT22;15175;48.154;11.534;2022-09-13T05:16:43;14.70;99.90
15967;DHT22;15175;48.154;11.534;2022-09-13T05:19:11;14.70;99.90
15967;DHT22;15175;48.154;11.534;2022-09-13T05:21:38;14.70;99.90
15967;DHT22;15175;48.154;11.534;2022-09-13T05:24:05;14.70;99.90
15967;DHT22;15175;48.154;11.534;2022-09-13T05:26:32;14.70;99.90
15967;DHT22;15175;48.154;11.534;2022-09-13T05:28:59;14.70;99.90
15967;DHT22;15175;48.154;11.534;2022-09-13T05:31:28;14.80;99.90
15967;DHT22;15175;48.154;11.534;2022-09-13T05:33:59;14.90;99.90
15967;DHT22;15175;48.154;11.534;2022-09-13T05:36:27;14.90;99.90
15967;DHT22;15175;48.154;11.534;2022-09-13T05:38:54;15.00;99.90
15967;DHT22;15175;48.154;11.534;2022-09-13T05:41:22;15.00;99.90
15967;DHT22;15175;48.154;11.534;2022-09-13T05:43:49;15.10;99.90
15967;DHT22;15175;48.154;11.534;2022-09-13T05:46:17;15.30;99.90
15967;DHT22;15175;48.154;11.534;2022-09-13T05:48:46;15.40;99.90
15967;DHT22;15175;48.154;11.534;2022-09-13T05:51:16;15.50;99.90
15967;DHT22;15175;48.154;11.534;2022-09-13T05:53:44;15.60;99.90
15967;DHT22;15175;48.154;11.534;2022-09-13T05:56:13;15.70;99.90
15967;DHT22;15175;48.154;11.534;2022-09-13T05:58:42;15.70;99.90
15967;DHT22;15175;48.154;11.534;2022-09-13T06:01:10;15.90;99.90
15967;DHT22;15175;48.154;11.534;2022-09-13T06:03:39;16.00;99.90
15967;DHT22;15175;48.154;11.534;2022-09-13T06:06:07;16.10;99.90
15967;DHT22;15175;48.154;11.534;2022-09-13T06:08:35;16.10;99.90
15967;DHT22;15175;48.154;11.534;2022-09-13T06:11:04;16.20;99.90
15967;DHT22;15175;48.154;11.534;2022-09-13T06:13:32;16.30;99.90
15967;DHT22;15175;48.154;11.534;2022-09-13T06:16:00;16.40;99.90
15967;DHT22;15175;48.154;11.534;2022-09-13T06:18:28;16.60;99.90
15967;DHT22;15175;48.154;11.534;2022-09-13T06:20:59;16.80;99.90
15967;DHT22;15175;48.154;11.534;2022-09-13T06:23:27;16.90;99.90
15967;DHT22;15175;48.154;11.534;2022-09-13T06:26:01;17.20;99.90
15967;DHT22;15175;48.154;11.534;2022-09-13T06:28:29;17.40;99.90
15967;DHT22;15175;48.154;11.534;2022-09-13T06:31:00;17.60;99.90
15967;DHT22;15175;48.154;11.534;2022-09-13T06:33:27;17.70;99.90
15967;DHT22;15175;48.154;11.534;2022-09-13T06:35:59;17.80;99.90
15967;DHT22;15175;48.154;11.534;2022-09-13T06:38:33;17.90;99.90
15967;DHT22;15175;48.154;11.534;2022-09-13T06:41:02;17.90;99.90
15967;DHT22;15175;48.154;11.534;2022-09-13T06:43:30;18.00;99.90
15967;DHT22;15175;48.154;11.534;2022-09-13T06:46:01;18.10;99.90
15967;DHT22;15175;48.154;11.534;2022-09-13T06:48:31;18.20;99.90
15967;DHT22;15175;48.154;11.534;2022-09-13T06:50:59;18.30;99.90
15967;DHT22;15175;48.154;11.534;2022-09-13T06:53:27;18.40;99.90
15967;DHT22;15175;48.154;11.534;2022-09-13T06:56:04;18.40;99.90
15967;DHT22;15175;48.154;11.534;2022-09-13T06:58:32;18.50;99.90
15967;DHT22;15175;48.154;11.534;2022-09-13T07:01:11;18.60;99.90
15967;DHT22;15175;48.154;11.534;2022-09-13T07:03:40;18.80;99.90
15967;DHT22;15175;48.154;11.534;2022-09-13T07:06:09;18.90;99.90
15967;DHT22;15175;48.154;11.534;2022-09-13T07:08:37;19.00;99.90
15967;DHT22;15175;48.154;11.534;2022-09-13T07:11:06;19.10;99.90
15967;DHT22;15175;48.154;11.534;2022-09-13T07:13:34;19.20;99.90
15967;DHT22;15175;48.154;11.534;2022-09-13T07:16:02;19.40;99.90
15967;DHT22;15175;48.154;11.534;2022-09-13T07:18:30;19.50;99.90
15967;DHT22;15175;48.154;11.534;2022-09-13T07:21:01;19.70;99.90
15967;DHT22;15175;48.154;11.534;2022-09-13T07:23:30;19.90;99.90
15967;DHT22;15175;48.154;11.534;2022-09-13T07:25:57;20.10;99.90
15967;DHT22;15175;48.154;11.534;2022-09-13T07:28:32;20.30;99.90
15967;DHT22;15175;48.154;11.534;2022-09-13T07:31:07;20.30;99.90
15967;DHT22;15175;48.154;11.534;2022-09-13T07:33:34;20.50;99.90
15967;DHT22;15175;48.154;11.534;2022-09-13T07:36:02;20.60;99.90
15967;DHT22;15175;48.154;11.534;2022-09-13T07:38:32;20.90;99.90
15967;DHT22;15175;48.154;11.534;2022-09-13T07:40:59;21.20;99.90
15967;DHT22;15175;48.154;11.534;2022-09-13T07:43:26;21.40;99.90
15967;DHT22;15175;48.154;11.534;2022-09-13T07:46:00;21.50;99.90
15967;DHT22;15175;48.154;11.534;2022-09-13T07:48:28;21.60;99.90
15967;DHT22;15175;48.154;11.534;2022-09-13T07:51:00;21.80;99.90
15967;DHT22;15175;48.154;11.534;2022-09-13T07:53:28;21.90;99.90
15967;DHT22;15175;48.154;11.534;2022-09-13T07:56:00;22.10;99.90
15967;DHT22;15175;48.154;11.534;2022-09-13T07:58:28;22.30;99.90
15967;DHT22;15175;48.154;11.534;2022-09-13T08:01:03;22.40;99.90
15967;DHT22;15175;48.154;11.534;2022-09-13T08:03:31;22.60;99.90
15967;DHT22;15175;48.154;11.534;2022-09-13T08:05:58;22.70;99.90
15967;DHT22;15175;48.154;11.534;2022-09-13T08:08:26;22.90;99.90
15967;DHT22;15175;48.154;11.534;2022-09-13T08:10:53;23.10;99.90
15967;DHT22;15175;48.154;11.534;2022-09-13T08:13:20;23.30;99.90
15967;DHT22;15175;48.154;11.534;2022-09-13T08:15:47;23.40;99.90
15967;DHT22;15175;48.154;11.534;2022-09-13T08:18:17;23.60;99.90
15967;DHT22;15175;48.154;11.534;2022-09-13T08:20:44;23.80;99.90
15967;DHT22;15175;48.154;11.534;2022-09-13T08:23:12;23.90;99.90
15967;DHT22;15175;48.154;11.534;2022-09-13T08:25:39;24.10;99.90
15967;DHT22;15175;48.154;11.534;2022-09-13T08:28:08;24.20;99.90
15967;DHT22;15175;48.154;11.534;2022-09-13T08:30:37;24.20;99.90
15967;DHT22;15175;48.154;11.534;2022-09-13T08:33:04;24.30;99.90
15967;DHT22;15175;48.154;11.534;2022-09-13T08:35:33;24.20;99.90
15967;DHT22;15175;48.154;11.534;2022-09-13T08:38:00;24.20;99.90
15967;DHT22;15175;48.154;11.534;2022-09-13T08:40:30;24.20;99.90
15967;DHT22;15175;48.154;11.534;2022-09-13T08:43:05;24.30;99.90
15967;DHT22;15175;48.154;11.534;2022-09-13T08:45:35;24.40;99.90
15967;DHT22;15175;48.154;11.534;2022-09-13T08:48:08;24.40;99.90
15967;DHT22;15175;48.154;11.534;2022-09-13T08:50:39;24.50;99.90
15967;DHT22;15175;48.154;11.534;2022-09-13T08:53:16;24.60;99.90
15967;DHT22;15175;48.154;11.534;2022-09-13T08:55:59;24.60;99.90
15967;DHT22;15175;48.154;11.534;2022-09-13T08:58:38;24.70;99.90
15967;DHT22;15175;48.154;11.534;2022-09-13T09:01:19;24.70;99.90
15967;DHT22;15175;48.154;11.534;2022-09-13T09:03:54;24.80;99.90
15967;DHT22;15175;48.154;11.534;2022-09-13T09:06:24;25.00;99.90
15967;DHT22;15175;48.154;11.534;2022-09-13T09:08:53;25.10;99.90
15967;DHT22;15175;48.154;11.534;2022-09-13T09:11:28;25.30;99.90
15967;DHT22;15175;48.154;11.534;2022-09-13T09:14:04;25.50;99.90
15967;DHT22;15175;48.154;11.534;2022-09-13T09:16:36;25.60;99.90
15967;DHT22;15175;48.154;11.534;2022-09-13T09:19:15;25.70;99.90
15967;DHT22;15175;48.154;11.534;2022-09-13T09:21:49;25.90;99.90
15967;DHT22;15175;48.154;11.534;2022-09-13T09:24:20;26.10;99.90
15967;DHT22;15175;48.154;11.534;2022-09-13T09:26:47;26.30;99.30
15967;DHT22;15175;48.154;11.534;2022-09-13T09:29:18;26.50;98.70
15967;DHT22;15175;48.154;11.534;2022-09-13T09:31:53;26.50;97.70
15967;DHT22;15175;48.154;11.534;2022-09-13T09:34:30;26.60;97.80
15967;DHT22;15175;48.154;11.534;2022-09-13T09:37:17;26.60;97.70
15967;DHT22;15175;48.154;11.534;2022-09-13T09:39:46;26.70;98.70
15967;DHT22;15175;48.154;11.534;2022-09-13T09:42:15;26.90;98.20
15967;DHT22;15175;48.154;11.534;2022-09-13T09:44:43;27.10;98.20
15967;DHT22;15175;48.154;11.534;2022-09-13T09:47:15;27.40;97.90
15967;DHT22;15175;48.154;11.534;2022-09-13T09:49:46;27.60;97.40
15967;DHT22;15175;48.154;11.534;2022-09-13T09:52:37;27.70;97.00
15967;DHT22;15175;48.154;11.534;2022-09-13T09:55:16;27.80;96.90
15967;DHT22;15175;48.154;11.534;2022-09-13T09:57:52;27.90;96.70
15967;DHT22;15175;48.154;11.534;2022-09-13T10:00:21;28.10;96.50
15967;DHT22;15175;48.154;11.534;2022-09-13T10:02:53;28.10;96.60
15967;DHT22;15175;48.154;11.534;2022-09-13T10:05:21;28.20;96.70
15967;DHT22;15175;48.154;11.534;2022-09-13T10:07:54;28.30;96.90
15967;DHT22;15175;48.154;11.534;2022-09-13T10:10:25;28.50;96.70
15967;DHT22;15175;48.154;11.534;2022-09-13T10:12:54;28.60;95.40
15967;DHT22;15175;48.154;11.534;2022-09-13T10:15:24;28.60;95.60
15967;DHT22;15175;48.154;11.534;2022-09-13T10:18:04;28.70;95.40
15967;DHT22;15175;48.154;11.534;2022-09-13T10:20:32;28.80;94.60
15967;DHT22;15175;48.154;11.534;2022-09-13T10:23:16;28.80;94.30
15967;DHT22;15175;48.154;11.534;2022-09-13T10:25:44;28.80;94.00
15967;DHT22;15175;48.154;11.534;2022-09-13T10:28:15;28.90;93.90
15967;DHT22;15175;48.154;11.534;2022-09-13T10:30:46;29.00;94.00
15967;DHT22;15175;48.154;11.534;2022-09-13T10:33:27;29.00;94.20
15967;DHT22;15175;48.154;11.534;2022-09-13T10:35:57;29.20;93.40
15967;DHT22;15175;48.154;11.534;2022-09-13T10:38:29;29.20;92.80
15967;DHT22;15175;48.154;11.534;2022-09-13T10:40:59;29.20;92.90
15967;DHT22;15175;48.154;11.534;2022-09-13T10:43:28;29.20;92.80
15967;DHT22;15175;48.154;11.534;2022-09-13T10:45:56;29.20;92.80
15967;DHT22;15175;48.154;11.534;2022-09-13T10:48:24;29.20;92.80
15967;DHT22;15175;48.154;11.534;2022-09-13T10:51:06;29.40;92.80
15967;DHT22;15175;48.154;11.534;2022-09-13T10:53:37;29.40;92.10
15967;DHT22;15175;48.154;11.534;2022-09-13T10:56:05;29.50;91.80
15967;DHT22;15175;48.154;11.534;2022-09-13T10:58:43;29.60;92.00
15967;DHT22;15175;48.154;11.534;2022-09-13T11:01:39;29.70;91.90
15967;DHT22;15175;48.154;11.534;2022-09-13T11:07:29;29.80;91.30
15967;DHT22;15175;48.154;11.534;2022-09-13T11:10:03;29.80;91.50
15967;DHT22;15175;48.154;11.534;2022-09-13T11:12:36;29.90;91.30
15967;DHT22;15175;48.154;11.534;2022-09-13T11:15:12;30.00;90.70
15967;DHT22;15175;48.154;11.534;2022-09-13T11:18:03;30.10;90.90
15967;DHT22;15175;48.154;11.534;2022-09-13T11:20:43;30.00;90.40
15967;DHT22;15175;48.154;11.534;2022-09-13T11:26:29;29.80;89.60
15967;DHT22;15175;48.154;11.534;2022-09-13T11:29:08;29.70;90.40
15967;DHT22;15175;48.154;11.534;2022-09-13T11:31:45;29.70;90.60
15967;DHT22;15175;48.154;11.534;2022-09-13T11:34:22;29.70;91.00
15967;DHT22;15175;48.154;11.534;2022-09-13T11:37:22;29.70;91.20
15967;DHT22;15175;48.154;11.534;2022-09-13T11:40:00;29.60;90.80
15967;DHT22;15175;48.154;11.534;2022-09-13T11:42:42;29.60;90.90
15967;DHT22;15175;48.154;11.534;2022-09-13T11:45:21;29.50;91.10
15967;DHT22;15175;48.154;11.534;2022-09-13T11:50:47;29.40;90.20
15967;DHT22;15175;48.154;11.534;2022-09-13T11:53:29;29.30;90.60
15967;DHT22;15175;48.154;11.534;2022-09-13T11:56:00;29.20;90.50
15967;DHT22;15175;48.154;11.534;2022-09-13T11:58:34;29.00;90.00
15967;DHT22;15175;48.154;11.534;2022-09-13T12:01:05;29.00;90.80
15967;DHT22;15175;48.154;11.534;2022-09-13T12:03:37;28.90;90.50
15967;DHT22;15175;48.154;11.534;2022-09-13T12:06:11;28.80;90.70
15967;DHT22;15175;48.154;11.534;2022-09-13T12:08:41;28.70;90.80
15967;DHT22;15175;48.154;11.534;2022-09-13T12:11:14;28.70;90.30
15967;DHT22;15175;48.154;11.534;2022-09-13T12:13:49;28.60;90.90
15967;DHT22;15175;48.154;11.534;2022-09-13T12:16:21;28.60;91.40
15967;DHT22;15175;48.154;11.534;2022-09-13T12:18:52;28.60;91.40
15967;DHT22;15175;48.154;11.534;2022-09-13T12:21:22;28.70;91.70
15967;DHT22;15175;48.154;11.534;2022-09-13T12:23:55;28.80;91.70
15967;DHT22;15175;48.154;11.534;2022-09-13T12:26:31;28.90;91.40
15967;DHT22;15175;48.154;11.534;2022-09-13T12:29:06;29.10;91.70
15967;DHT22;15175;48.154;11.534;2022-09-13T12:31:37;29.20;91.70
15967;DHT22;15175;48.154;11.534;2022-09-13T12:34:05;29.40;91.70
15967;DHT22;15175;48.154;11.534;2022-09-13T12:36:55;29.40;91.10
15967;DHT22;15175;48.154;11.534;2022-09-13T12:39:52;29.60;91.00
15967;DHT22;15175;48.154;11.534;2022-09-13T12:42:56;29.70;90.90
15967;DHT22;15175;48.154;11.534;2022-09-13T12:45:46;29.80;91.10
15967;DHT22;15175;48.154;11.534;2022-09-13T12:48:37;29.90;90.80
15967;DHT22;15175;48.154;11.534;2022-09-13T12:51:13;30.00;90.20
15967;DHT22;15175;48.154;11.534;2022-09-13T12:54:07;30.10;86.20
15967;DHT22;15175;48.154;11.534;2022-09-13T12:56:49;30.10;88.90
15967;DHT22;15175;48.154;11.534;2022-09-13T12:59:41;30.20;87.90
15967;DHT22;15175;48.154;11.534;2022-09-13T13:02:28;30.30;89.10
15967;DHT22;15175;48.154;11.534;2022-09-13T13:05:00;30.40;85.40
15967;DHT22;15175;48.154;11.534;2022-09-13T13:07:30;30.30;84.80
15967;DHT22;15175;48.154;11.534;2022-09-13T13:09:59;30.20;86.10
15967;DHT22;15175;48.154;11.534;2022-09-13T13:12:30;30.20;86.60
15967;DHT22;15175;48.154;11.534;2022-09-13T13:14:58;30.30;87.40
15967;DHT22;15175;48.154;11.534;2022-09-13T13:17:39;30.40;86.90
15967;DHT22;15175;48.154;11.534;2022-09-13T13:20:43;30.50;86.70
15967;DHT22;15175;48.154;11.534;2022-09-13T13:23:21;30.60;86.70
15967;DHT22;15175;48.154;11.534;2022-09-13T13:26:01;30.60;87.30
15967;DHT22;15175;48.154;11.534;2022-09-13T13:28:49;30.40;85.00
15967;DHT22;15175;48.154;11.534;2022-09-13T13:31:39;30.40;83.90
15967;DHT22;15175;48.154;11.534;2022-09-13T13:34:34;30.40;84.50
15967;DHT22;15175;48.154;11.534;2022-09-13T13:37:25;30.40;85.20
15967;DHT22;15175;48.154;11.534;2022-09-13T13:43:28;30.40;84.00
15967;DHT22;15175;48.154;11.534;2022-09-13T13:48:43;30.40;83.30
15967;DHT22;15175;48.154;11.534;2022-09-13T13:51:27;30.30;82.50
15967;DHT22;15175;48.154;11.534;2022-09-13T13:53:58;30.30;83.50
15967;DHT22;15175;48.154;11.534;2022-09-13T13:56:33;30.20;82.80
15967;DHT22;15175;48.154;11.534;2022-09-13T13:59:08;30.10;83.20
15967;DHT22;15175;48.154;11.534;2022-09-13T14:01:43;29.90;84.20
15967;DHT22;15175;48.154;11.534;2022-09-13T14:04:45;29.90;84.30
15967;DHT22;15175;48.154;11.534;2022-09-13T14:07:29;29.70;84.50
15967;DHT22;15175;48.154;11.534;2022-09-13T14:10:04;29.60;82.30
15967;DHT22;15175;48.154;11.534;2022-09-13T14:12:46;29.60;84.60
15967;DHT22;15175;48.154;11.534;2022-09-13T14:15:33;29.40;82.90
15967;DHT22;15175;48.154;11.534;2022-09-13T14:21:18;29.20;84.40
15967;DHT22;15175;48.154;11.534;2022-09-13T14:23:47;29.10;83.80
15967;DHT22;15175;48.154;11.534;2022-09-13T14:26:14;29.00;84.60
15967;DHT22;15175;48.154;11.534;2022-09-13T14:28:42;29.00;85.20
15967;DHT22;15175;48.154;11.534;2022-09-13T14:31:16;29.00;85.70
15967;DHT22;15175;48.154;11.534;2022-09-13T14:33:45;28.90;86.00
15967;DHT22;15175;48.154;11.534;2022-09-13T14:36:18;28.80;86.40
15967;DHT22;15175;48.154;11.534;2022-09-13T14:38:48;28.80;86.60
15967;DHT22;15175;48.154;11.534;2022-09-13T14:41:17;28.80;86.80
15967;DHT22;15175;48.154;11.534;2022-09-13T14:43:45;28.70;87.00
15967;DHT22;15175;48.154;11.534;2022-09-13T14:46:16;28.60;87.00
15967;DHT22;15175;48.154;11.534;2022-09-13T14:48:47;28.50;87.30
15967;DHT22;15175;48.154;11.534;2022-09-13T14:51:19;28.40;87.80
15967;DHT22;15175;48.154;11.534;2022-09-13T14:53:51;28.40;87.10
15967;DHT22;15175;48.154;11.534;2022-09-13T14:56:31;28.40;87.10
15967;DHT22;15175;48.154;11.534;2022-09-13T14:59:03;28.40;87.40
15967;DHT22;15175;48.154;11.534;2022-09-13T15:01:33;28.30;87.30
15967;DHT22;15175;48.154;11.534;2022-09-13T15:04:02;28.20;87.70
15967;DHT22;15175;48.154;11.534;2022-09-13T15:06:32;28.20;87.10
15967;DHT22;15175;48.154;11.534;2022-09-13T15:09:13;28.20;88.10
15967;DHT22;15175;48.154;11.534;2022-09-13T15:11:56;28.10;88.20
15967;DHT22;15175;48.154;11.534;2022-09-13T15:14:25;28.00;87.70
15967;DHT22;15175;48.154;11.534;2022-09-13T15:16:57;28.00;87.90
15967;DHT22;15175;48.154;11.534;2022-09-13T15:19:34;28.00;87.80
15967;DHT22;15175;48.154;11.534;2022-09-13T15:22:12;27.90;87.70
15967;DHT22;15175;48.154;11.534;2022-09-13T15:24:45;27.80;87.40
15967;DHT22;15175;48.154;11.534;2022-09-13T15:27:17;27.70;88.00
15967;DHT22;15175;48.154;11.534;2022-09-13T15:29:50;27.70;86.20
15967;DHT22;15175;48.154;11.534;2022-09-13T15:32:22;27.60;86.30
15967;DHT22;15175;48.154;11.534;2022-09-13T15:34:50;27.60;86.80
15967;DHT22;15175;48.154;11.534;2022-09-13T15:37:28;27.50;87.30
15967;DHT22;15175;48.154;11.534;2022-09-13T15:40:12;27.50;86.40
15967;DHT22;15175;48.154;11.534;2022-09-13T15:42:39;27.40;85.30
15967;DHT22;15175;48.154;11.534;2022-09-13T15:45:07;27.40;86.00
15967;DHT22;15175;48.154;11.534;2022-09-13T15:47:34;27.40;86.50
15967;DHT22;15175;48.154;11.534;2022-09-13T15:50:01;27.30;87.50
15967;DHT22;15175;48.154;11.534;2022-09-13T15:52:28;27.30;87.90
15967;DHT22;15175;48.154;11.534;2022-09-13T15:54:55;27.30;87.90
15967;DHT22;15175;48.154;11.534;2022-09-13T15:57:25;27.20;87.40
15967;DHT22;15175;48.154;11.534;2022-09-13T15:59:53;27.10;88.20
15967;DHT22;15175;48.154;11.534;2022-09-13T16:02:22;27.10;89.40
15967;DHT22;15175;48.154;11.534;2022-09-13T16:04:50;26.90;90.00
15967;DHT22;15175;48.154;11.534;2022-09-13T16:07:18;26.90;90.20
15967;DHT22;15175;48.154;11.534;2022-09-13T16:09:45;26.80;90.30
15967;DHT22;15175;48.154;11.534;2022-09-13T16:12:13;26.60;90.30
15967;DHT22;15175;48.154;11.534;2022-09-13T16:14:41;26.70;90.40
15967;DHT22;15175;48.154;11.534;2022-09-13T16:17:11;26.70;90.40